首页
METAR-TAF:

METAR-TAF

机场 :

Hay River, 西北特區, 加拿大

纬度: 60-50N, 经度: 115-47W, 海拔: 164米

当前天气观测

该预报发布于1小时和5分钟前的16:00 UTC
风速4节,风向西北
温度 17°C
湿度 82%
气压 1025 hPa
能見度: 24.1公里
阴天层高于23000英尺

METAR: CYHY 211600Z 32004KT 15SM OVC230 17/14 A3026 RMK FU7CI1 SLP253

时间: 11:05 (17:05 UTC)

预报

该预报发布于5小时和25分钟前的11:40 UTC
预报有效从21日的 12点(UTC)到 21日的 24点(UTC)
风速3节,风向多变
能見度: 10公里
多云层高于3000英尺
阴天层高于8000英尺
短暂存在
从 21日的 12点(UTC)到 21日的 18点(UTC)
能見度: 9.7公里
多云层高于2000英尺
从 21日的 1800点(UTC)
风速8节,风向北转东北
能見度: 10公里
少量云层高于3000英尺
散云层高于5000英尺
短暂存在
从 21日的 18点(UTC)到 21日的 24点(UTC)
能見度: 4.8公里

TAF: CYHY 211140Z 2112/2124 VRB03KT P6SM BKN030 OVC080 TEMPO 2112/2118 6SM FU BKN020 FM211800 02008KT P6SM FEW030 SCT050 TEMPO 2118/2124 3SM FU RMK NXT FCST BY 211800Z

超过4000个机场的气象观测和天气预报(METAR&TAF报告)。

可查询的气象台以黄色和红色小点在地图上表示。

将鼠标移到小点上方,可查看气象台名称。

然后点击查看天气观测和预报。

如需切换地图:点击带黑十字的绿色按钮放大地图;点击带横线的绿色按钮缩小地图;或者点击绿色箭头查看邻近地区的地图。


METAR-TAF: